sensor_id;sensor_type;location;lat;lon;timestamp;P1;durP1;ratioP1;P2;durP2;ratioP2
44438;SDS011;30145;48.874;10.186;2022-08-01T00:02:11;2.40;;;2.10;;
44438;SDS011;30145;48.874;10.186;2022-08-01T00:04:38;3.90;;;2.07;;
44438;SDS011;30145;48.874;10.186;2022-08-01T00:07:05;2.67;;;1.97;;
44438;SDS011;30145;48.874;10.186;2022-08-01T00:09:32;3.17;;;1.83;;
44438;SDS011;30145;48.874;10.186;2022-08-01T00:11:59;4.30;;;1.93;;
44438;SDS011;30145;48.874;10.186;2022-08-01T00:14:26;3.13;;;1.90;;
44438;SDS011;30145;48.874;10.186;2022-08-01T00:16:53;2.47;;;2.00;;
44438;SDS011;30145;48.874;10.186;2022-08-01T00:19:20;2.00;;;1.80;;
44438;SDS011;30145;48.874;10.186;2022-08-01T00:21:47;3.97;;;2.10;;
44438;SDS011;30145;48.874;10.186;2022-08-01T00:24:14;3.63;;;2.10;;
44438;SDS011;30145;48.874;10.186;2022-08-01T00:26:41;2.10;;;1.90;;
44438;SDS011;30145;48.874;10.186;2022-08-01T00:29:08;2.50;;;2.30;;
44438;SDS011;30145;48.874;10.186;2022-08-01T00:31:35;4.07;;;1.80;;
44438;SDS011;30145;48.874;10.186;2022-08-01T00:34:02;2.17;;;1.97;;
44438;SDS011;30145;48.874;10.186;2022-08-01T00:36:29;3.30;;;1.80;;
44438;SDS011;30145;48.874;10.186;2022-08-01T00:38:56;3.13;;;2.20;;
44438;SDS011;30145;48.874;10.186;2022-08-01T00:41:23;2.40;;;2.20;;
44438;SDS011;30145;48.874;10.186;2022-08-01T00:43:50;3.40;;;1.80;;
44438;SDS011;30145;48.874;10.186;2022-08-01T00:46:17;2.53;;;1.80;;
44438;SDS011;30145;48.874;10.186;2022-08-01T00:48:44;2.57;;;1.67;;
44438;SDS011;30145;48.874;10.186;2022-08-01T00:51:12;4.40;;;2.10;;
44438;SDS011;30145;48.874;10.186;2022-08-01T00:53:40;3.17;;;2.20;;
44438;SDS011;30145;48.874;10.186;2022-08-01T00:56:07;3.17;;;1.90;;
44438;SDS011;30145;48.874;10.186;2022-08-01T00:58:34;2.07;;;1.87;;
44438;SDS011;30145;48.874;10.186;2022-08-01T01:01:01;3.77;;;2.20;;
44438;SDS011;30145;48.874;10.186;2022-08-01T01:03:28;2.00;;;1.80;;
44438;SDS011;30145;48.874;10.186;2022-08-01T01:11:57;3.57;;;2.30;;
44438;SDS011;30145;48.874;10.186;2022-08-01T01:14:31;2.47;;;1.83;;
44438;SDS011;30145;48.874;10.186;2022-08-01T01:17:03;2.30;;;2.10;;
44438;SDS011;30145;48.874;10.186;2022-08-01T01:19:33;3.13;;;2.40;;
44438;SDS011;30145;48.874;10.186;2022-08-01T01:22:17;2.60;;;2.40;;
44438;SDS011;30145;48.874;10.186;2022-08-01T01:25:09;2.93;;;2.03;;
44438;SDS011;30145;48.874;10.186;2022-08-01T01:30:48;2.37;;;2.17;;
44438;SDS011;30145;48.874;10.186;2022-08-01T01:33:17;2.77;;;1.90;;
44438;SDS011;30145;48.874;10.186;2022-08-01T01:35:46;2.27;;;2.07;;
44438;SDS011;30145;48.874;10.186;2022-08-01T01:38:20;2.50;;;2.30;;
44438;SDS011;30145;48.874;10.186;2022-08-01T01:40:49;2.13;;;1.93;;
44438;SDS011;30145;48.874;10.186;2022-08-01T01:43:17;2.40;;;2.20;;
44438;SDS011;30145;48.874;10.186;2022-08-01T01:45:45;3.20;;;2.00;;
44438;SDS011;30145;48.874;10.186;2022-08-01T01:48:14;2.70;;;2.20;;
44438;SDS011;30145;48.874;10.186;2022-08-01T01:50:45;2.50;;;2.20;;
44438;SDS011;30145;48.874;10.186;2022-08-01T01:53:17;2.70;;;2.13;;
44438;SDS011;30145;48.874;10.186;2022-08-01T01:55:48;3.20;;;2.40;;
44438;SDS011;30145;48.874;10.186;2022-08-01T01:58:18;2.30;;;2.10;;
44438;SDS011;30145;48.874;10.186;2022-08-01T02:00:47;3.57;;;2.30;;
44438;SDS011;30145;48.874;10.186;2022-08-01T02:03:15;5.63;;;2.33;;
44438;SDS011;30145;48.874;10.186;2022-08-01T02:05:43;3.27;;;2.53;;
44438;SDS011;30145;48.874;10.186;2022-08-01T02:08:10;2.77;;;2.23;;
44438;SDS011;30145;48.874;10.186;2022-08-01T02:10:39;3.17;;;2.40;;
44438;SDS011;30145;48.874;10.186;2022-08-01T02:13:07;2.40;;;2.20;;
44438;SDS011;30145;48.874;10.186;2022-08-01T02:15:35;2.87;;;2.13;;
44438;SDS011;30145;48.874;10.186;2022-08-01T02:18:06;3.53;;;2.23;;
44438;SDS011;30145;48.874;10.186;2022-08-01T02:20:34;3.60;;;2.53;;
44438;SDS011;30145;48.874;10.186;2022-08-01T02:23:07;4.10;;;2.40;;
44438;SDS011;30145;48.874;10.186;2022-08-01T02:25:39;3.87;;;1.93;;
44438;SDS011;30145;48.874;10.186;2022-08-01T02:28:45;3.67;;;2.30;;
44438;SDS011;30145;48.874;10.186;2022-08-01T02:31:06;2.20;;;2.00;;
44438;SDS011;30145;48.874;10.186;2022-08-01T02:33:40;2.90;;;2.20;;
44438;SDS011;30145;48.874;10.186;2022-08-01T02:36:09;2.60;;;2.40;;
44438;SDS011;30145;48.874;10.186;2022-08-01T02:38:40;2.77;;;2.20;;
44438;SDS011;30145;48.874;10.186;2022-08-01T02:41:13;4.10;;;2.27;;
44438;SDS011;30145;48.874;10.186;2022-08-01T02:43:46;2.63;;;2.43;;
44438;SDS011;30145;48.874;10.186;2022-08-01T02:46:16;2.57;;;2.37;;
44438;SDS011;30145;48.874;10.186;2022-08-01T02:48:50;3.10;;;2.67;;
44438;SDS011;30145;48.874;10.186;2022-08-01T02:51:19;5.57;;;2.50;;
44438;SDS011;30145;48.874;10.186;2022-08-01T02:53:48;2.70;;;2.20;;
44438;SDS011;30145;48.874;10.186;2022-08-01T02:56:17;2.50;;;2.30;;
44438;SDS011;30145;48.874;10.186;2022-08-01T02:58:44;3.10;;;2.53;;
44438;SDS011;30145;48.874;10.186;2022-08-01T03:01:13;3.73;;;2.57;;
44438;SDS011;30145;48.874;10.186;2022-08-01T03:03:41;2.90;;;2.60;;
44438;SDS011;30145;48.874;10.186;2022-08-01T03:06:08;2.67;;;2.30;;
44438;SDS011;30145;48.874;10.186;2022-08-01T03:08:36;3.80;;;2.53;;
44438;SDS011;30145;48.874;10.186;2022-08-01T03:11:04;2.70;;;2.20;;
44438;SDS011;30145;48.874;10.186;2022-08-01T03:13:31;2.90;;;2.43;;
44438;SDS011;30145;48.874;10.186;2022-08-01T03:15:59;2.57;;;2.23;;
44438;SDS011;30145;48.874;10.186;2022-08-01T03:18:27;2.83;;;2.33;;
44438;SDS011;30145;48.874;10.186;2022-08-01T03:20:55;3.03;;;2.73;;
44438;SDS011;30145;48.874;10.186;2022-08-01T03:23:23;4.33;;;2.57;;
44438;SDS011;30145;48.874;10.186;2022-08-01T03:25:50;7.13;;;2.30;;
44438;SDS011;30145;48.874;10.186;2022-08-01T03:28:18;3.07;;;2.50;;
44438;SDS011;30145;48.874;10.186;2022-08-01T03:30:46;3.83;;;2.90;;
44438;SDS011;30145;48.874;10.186;2022-08-01T03:33:14;2.90;;;2.53;;
44438;SDS011;30145;48.874;10.186;2022-08-01T03:35:48;4.53;;;2.50;;
44438;SDS011;30145;48.874;10.186;2022-08-01T03:38:18;3.00;;;2.53;;
44438;SDS011;30145;48.874;10.186;2022-08-01T03:40:52;3.90;;;2.90;;
44438;SDS011;30145;48.874;10.186;2022-08-01T03:43:30;3.20;;;2.37;;
44438;SDS011;30145;48.874;10.186;2022-08-01T03:46:06;2.67;;;2.47;;
44438;SDS011;30145;48.874;10.186;2022-08-01T03:48:47;2.67;;;2.43;;
44438;SDS011;30145;48.874;10.186;2022-08-01T03:51:15;5.20;;;2.37;;
44438;SDS011;30145;48.874;10.186;2022-08-01T03:53:45;4.53;;;2.40;;
44438;SDS011;30145;48.874;10.186;2022-08-01T03:56:12;4.47;;;2.43;;
44438;SDS011;30145;48.874;10.186;2022-08-01T03:58:43;3.83;;;2.50;;
44438;SDS011;30145;48.874;10.186;2022-08-01T04:01:10;2.47;;;2.27;;
44438;SDS011;30145;48.874;10.186;2022-08-01T04:03:37;2.90;;;2.40;;
44438;SDS011;30145;48.874;10.186;2022-08-01T04:06:05;4.03;;;2.60;;
44438;SDS011;30145;48.874;10.186;2022-08-01T04:08:38;2.87;;;2.67;;
44438;SDS011;30145;48.874;10.186;2022-08-01T04:11:05;2.63;;;2.33;;
44438;SDS011;30145;48.874;10.186;2022-08-01T04:13:34;3.27;;;2.70;;
44438;SDS011;30145;48.874;10.186;2022-08-01T04:16:01;3.13;;;2.50;;
44438;SDS011;30145;48.874;10.186;2022-08-01T04:18:28;5.13;;;2.50;;
44438;SDS011;30145;48.874;10.186;2022-08-01T04:20:55;3.50;;;2.47;;
44438;SDS011;30145;48.874;10.186;2022-08-01T04:23:22;4.47;;;2.60;;
44438;SDS011;30145;48.874;10.186;2022-08-01T04:25:51;3.23;;;2.80;;
44438;SDS011;30145;48.874;10.186;2022-08-01T04:28:19;6.63;;;2.70;;
44438;SDS011;30145;48.874;10.186;2022-08-01T04:30:47;3.10;;;2.30;;
44438;SDS011;30145;48.874;10.186;2022-08-01T04:33:16;4.20;;;2.90;;
44438;SDS011;30145;48.874;10.186;2022-08-01T04:35:46;3.37;;;2.87;;
44438;SDS011;30145;48.874;10.186;2022-08-01T04:38:15;3.73;;;2.70;;
44438;SDS011;30145;48.874;10.186;2022-08-01T04:40:49;2.87;;;2.53;;
44438;SDS011;30145;48.874;10.186;2022-08-01T04:43:17;3.47;;;2.80;;
44438;SDS011;30145;48.874;10.186;2022-08-01T04:45:45;4.63;;;3.00;;
44438;SDS011;30145;48.874;10.186;2022-08-01T04:48:13;3.67;;;2.80;;
44438;SDS011;30145;48.874;10.186;2022-08-01T04:50:42;4.27;;;2.77;;
44438;SDS011;30145;48.874;10.186;2022-08-01T04:53:16;4.67;;;2.77;;
44438;SDS011;30145;48.874;10.186;2022-08-01T04:55:44;3.90;;;2.80;;
44438;SDS011;30145;48.874;10.186;2022-08-01T04:58:12;4.07;;;2.60;;
44438;SDS011;30145;48.874;10.186;2022-08-01T05:00:43;2.53;;;2.33;;
44438;SDS011;30145;48.874;10.186;2022-08-01T05:03:10;4.27;;;2.47;;
44438;SDS011;30145;48.874;10.186;2022-08-01T05:05:37;3.33;;;2.50;;
44438;SDS011;30145;48.874;10.186;2022-08-01T05:08:04;3.60;;;2.60;;
44438;SDS011;30145;48.874;10.186;2022-08-01T05:10:32;2.90;;;2.60;;
44438;SDS011;30145;48.874;10.186;2022-08-01T05:13:00;2.60;;;2.40;;
44438;SDS011;30145;48.874;10.186;2022-08-01T05:15:27;2.50;;;2.30;;
44438;SDS011;30145;48.874;10.186;2022-08-01T05:17:54;2.70;;;2.50;;
44438;SDS011;30145;48.874;10.186;2022-08-01T05:20:22;3.37;;;2.47;;
44438;SDS011;30145;48.874;10.186;2022-08-01T05:22:49;2.77;;;2.57;;
44438;SDS011;30145;48.874;10.186;2022-08-01T05:25:16;2.50;;;2.10;;
44438;SDS011;30145;48.874;10.186;2022-08-01T05:27:44;2.40;;;2.20;;
44438;SDS011;30145;48.874;10.186;2022-08-01T05:30:11;2.70;;;2.50;;
44438;SDS011;30145;48.874;10.186;2022-08-01T05:32:38;4.63;;;2.30;;
44438;SDS011;30145;48.874;10.186;2022-08-01T05:35:05;2.87;;;2.40;;
44438;SDS011;30145;48.874;10.186;2022-08-01T05:37:33;5.10;;;2.30;;
44438;SDS011;30145;48.874;10.186;2022-08-01T05:40:00;3.17;;;2.33;;
44438;SDS011;30145;48.874;10.186;2022-08-01T05:42:28;2.97;;;2.30;;
44438;SDS011;30145;48.874;10.186;2022-08-01T05:44:55;2.00;;;1.90;;
44438;SDS011;30145;48.874;10.186;2022-08-01T05:47:22;2.57;;;2.37;;
44438;SDS011;30145;48.874;10.186;2022-08-01T05:49:49;3.53;;;2.07;;
44438;SDS011;30145;48.874;10.186;2022-08-01T05:52:16;3.27;;;2.37;;
44438;SDS011;30145;48.874;10.186;2022-08-01T05:54:43;2.37;;;2.13;;
44438;SDS011;30145;48.874;10.186;2022-08-01T05:57:10;3.50;;;2.60;;
44438;SDS011;30145;48.874;10.186;2022-08-01T05:59:37;3.33;;;2.53;;
44438;SDS011;30145;48.874;10.186;2022-08-01T06:02:04;2.70;;;2.40;;
44438;SDS011;30145;48.874;10.186;2022-08-01T06:04:31;4.27;;;2.07;;
44438;SDS011;30145;48.874;10.186;2022-08-01T06:06:58;3.87;;;2.20;;
44438;SDS011;30145;48.874;10.186;2022-08-01T06:09:25;2.50;;;2.20;;
44438;SDS011;30145;48.874;10.186;2022-08-01T06:11:52;3.00;;;2.10;;
44438;SDS011;30145;48.874;10.186;2022-08-01T06:14:20;2.17;;;1.90;;
44438;SDS011;30145;48.874;10.186;2022-08-01T06:16:47;2.23;;;1.80;;
44438;SDS011;30145;48.874;10.186;2022-08-01T06:19:14;3.13;;;2.70;;
44438;SDS011;30145;48.874;10.186;2022-08-01T06:21:41;2.43;;;1.90;;
44438;SDS011;30145;48.874;10.186;2022-08-01T06:24:08;1.90;;;1.80;;
44438;SDS011;30145;48.874;10.186;2022-08-01T06:26:35;2.60;;;1.90;;
44438;SDS011;30145;48.874;10.186;2022-08-01T06:29:03;2.10;;;1.90;;
44438;SDS011;30145;48.874;10.186;2022-08-01T06:31:30;3.10;;;2.17;;
44438;SDS011;30145;48.874;10.186;2022-08-01T06:33:59;2.37;;;1.97;;
44438;SDS011;30145;48.874;10.186;2022-08-01T06:36:26;2.57;;;2.37;;
44438;SDS011;30145;48.874;10.186;2022-08-01T06:38:53;3.90;;;2.47;;
44438;SDS011;30145;48.874;10.186;2022-08-01T06:41:20;2.77;;;2.17;;
44438;SDS011;30145;48.874;10.186;2022-08-01T06:43:47;3.47;;;2.30;;
44438;SDS011;30145;48.874;10.186;2022-08-01T06:46:14;2.80;;;1.90;;
44438;SDS011;30145;48.874;10.186;2022-08-01T06:48:41;2.13;;;1.73;;
44438;SDS011;30145;48.874;10.186;2022-08-01T06:51:09;2.47;;;2.17;;
44438;SDS011;30145;48.874;10.186;2022-08-01T06:53:37;3.73;;;2.20;;
44438;SDS011;30145;48.874;10.186;2022-08-01T06:56:05;2.97;;;2.43;;
44438;SDS011;30145;48.874;10.186;2022-08-01T06:58:33;3.93;;;2.27;;
44438;SDS011;30145;48.874;10.186;2022-08-01T07:01:02;2.40;;;2.20;;
44438;SDS011;30145;48.874;10.186;2022-08-01T07:03:33;3.10;;;2.27;;
44438;SDS011;30145;48.874;10.186;2022-08-01T07:06:00;3.83;;;2.57;;
44438;SDS011;30145;48.874;10.186;2022-08-01T07:08:27;3.63;;;2.37;;
44438;SDS011;30145;48.874;10.186;2022-08-01T07:10:55;2.40;;;2.17;;
44438;SDS011;30145;48.874;10.186;2022-08-01T07:13:26;2.37;;;2.17;;
44438;SDS011;30145;48.874;10.186;2022-08-01T07:15:53;2.77;;;2.57;;
44438;SDS011;30145;48.874;10.186;2022-08-01T07:18:21;3.23;;;2.80;;
44438;SDS011;30145;48.874;10.186;2022-08-01T07:20:48;3.53;;;2.90;;
44438;SDS011;30145;48.874;10.186;2022-08-01T07:23:16;2.90;;;2.70;;
44438;SDS011;30145;48.874;10.186;2022-08-01T07:25:43;2.90;;;2.57;;
44438;SDS011;30145;48.874;10.186;2022-08-01T07:28:10;4.03;;;2.40;;
44438;SDS011;30145;48.874;10.186;2022-08-01T07:30:37;2.97;;;2.67;;
44438;SDS011;30145;48.874;10.186;2022-08-01T07:33:04;3.20;;;2.90;;
44438;SDS011;30145;48.874;10.186;2022-08-01T07:35:31;2.77;;;2.43;;
44438;SDS011;30145;48.874;10.186;2022-08-01T07:37:58;2.80;;;2.33;;
44438;SDS011;30145;48.874;10.186;2022-08-01T07:40:25;2.73;;;2.37;;
44438;SDS011;30145;48.874;10.186;2022-08-01T07:42:53;6.07;;;2.47;;
44438;SDS011;30145;48.874;10.186;2022-08-01T07:45:20;2.80;;;2.60;;
44438;SDS011;30145;48.874;10.186;2022-08-01T07:47:47;2.43;;;2.23;;
44438;SDS011;30145;48.874;10.186;2022-08-01T07:50:16;2.30;;;1.70;;
44438;SDS011;30145;48.874;10.186;2022-08-01T07:52:43;2.37;;;2.17;;
44438;SDS011;30145;48.874;10.186;2022-08-01T07:55:10;2.90;;;2.20;;
44438;SDS011;30145;48.874;10.186;2022-08-01T07:57:38;2.37;;;2.13;;
44438;SDS011;30145;48.874;10.186;2022-08-01T08:00:06;2.37;;;2.17;;
44438;SDS011;30145;48.874;10.186;2022-08-01T08:02:35;2.83;;;2.63;;
44438;SDS011;30145;48.874;10.186;2022-08-01T08:05:03;2.70;;;2.20;;
44438;SDS011;30145;48.874;10.186;2022-08-01T08:07:31;3.73;;;2.27;;
44438;SDS011;30145;48.874;10.186;2022-08-01T08:09:58;3.67;;;2.47;;
44438;SDS011;30145;48.874;10.186;2022-08-01T08:12:25;2.60;;;2.40;;
44438;SDS011;30145;48.874;10.186;2022-08-01T08:14:52;3.90;;;2.70;;
44438;SDS011;30145;48.874;10.186;2022-08-01T08:17:19;3.00;;;2.40;;
44438;SDS011;30145;48.874;10.186;2022-08-01T08:19:47;2.27;;;2.07;;
44438;SDS011;30145;48.874;10.186;2022-08-01T08:22:14;3.47;;;2.10;;
44438;SDS011;30145;48.874;10.186;2022-08-01T08:24:41;2.43;;;2.23;;
44438;SDS011;30145;48.874;10.186;2022-08-01T08:27:08;2.80;;;2.20;;
44438;SDS011;30145;48.874;10.186;2022-08-01T08:29:35;4.00;;;2.30;;
44438;SDS011;30145;48.874;10.186;2022-08-01T08:32:03;2.60;;;2.10;;
44438;SDS011;30145;48.874;10.186;2022-08-01T08:34:30;2.40;;;2.20;;
44438;SDS011;30145;48.874;10.186;2022-08-01T08:36:57;2.57;;;2.10;;
44438;SDS011;30145;48.874;10.186;2022-08-01T08:39:25;2.47;;;2.27;;
44438;SDS011;30145;48.874;10.186;2022-08-01T08:41:53;3.17;;;2.20;;
44438;SDS011;30145;48.874;10.186;2022-08-01T08:44:20;2.70;;;2.50;;
44438;SDS011;30145;48.874;10.186;2022-08-01T08:46:48;2.97;;;2.10;;
44438;SDS011;30145;48.874;10.186;2022-08-01T08:49:21;2.50;;;1.80;;
44438;SDS011;30145;48.874;10.186;2022-08-01T08:51:51;3.83;;;2.23;;
44438;SDS011;30145;48.874;10.186;2022-08-01T08:54:20;2.67;;;2.13;;
44438;SDS011;30145;48.874;10.186;2022-08-01T08:56:50;2.17;;;1.80;;
44438;SDS011;30145;48.874;10.186;2022-08-01T08:59:18;2.17;;;1.97;;
44438;SDS011;30145;48.874;10.186;2022-08-01T09:01:46;2.23;;;2.03;;
44438;SDS011;30145;48.874;10.186;2022-08-01T09:04:13;1.60;;;1.50;;
44438;SDS011;30145;48.874;10.186;2022-08-01T09:06:40;2.00;;;1.60;;
44438;SDS011;30145;48.874;10.186;2022-08-01T09:09:07;2.43;;;1.70;;
44438;SDS011;30145;48.874;10.186;2022-08-01T09:11:35;1.90;;;1.70;;
44438;SDS011;30145;48.874;10.186;2022-08-01T09:14:07;2.30;;;1.80;;
44438;SDS011;30145;48.874;10.186;2022-08-01T09:16:43;2.77;;;1.80;;
44438;SDS011;30145;48.874;10.186;2022-08-01T09:19:18;2.30;;;1.57;;
44438;SDS011;30145;48.874;10.186;2022-08-01T09:21:59;2.83;;;1.50;;
44438;SDS011;30145;48.874;10.186;2022-08-01T09:24:29;1.80;;;1.37;;
44438;SDS011;30145;48.874;10.186;2022-08-01T09:26:58;2.43;;;1.60;;
44438;SDS011;30145;48.874;10.186;2022-08-01T09:29:30;1.43;;;1.30;;
44438;SDS011;30145;48.874;10.186;2022-08-01T09:32:00;1.60;;;1.40;;
44438;SDS011;30145;48.874;10.186;2022-08-01T09:34:32;1.77;;;1.30;;
44438;SDS011;30145;48.874;10.186;2022-08-01T09:37:01;1.53;;;1.30;;
44438;SDS011;30145;48.874;10.186;2022-08-01T09:39:33;2.33;;;1.27;;
44438;SDS011;30145;48.874;10.186;2022-08-01T09:42:18;2.70;;;1.33;;
44438;SDS011;30145;48.874;10.186;2022-08-01T09:44:47;2.40;;;1.40;;
44438;SDS011;30145;48.874;10.186;2022-08-01T09:47:16;1.43;;;1.33;;
44438;SDS011;30145;48.874;10.186;2022-08-01T09:49:54;1.47;;;1.37;;
44438;SDS011;30145;48.874;10.186;2022-08-01T09:52:23;1.57;;;1.47;;
44438;SDS011;30145;48.874;10.186;2022-08-01T09:54:53;2.10;;;1.67;;
44438;SDS011;30145;48.874;10.186;2022-08-01T09:57:23;1.30;;;1.20;;
44438;SDS011;30145;48.874;10.186;2022-08-01T09:59:54;1.33;;;1.23;;
44438;SDS011;30145;48.874;10.186;2022-08-01T10:04:54;2.43;;;1.50;;
44438;SDS011;30145;48.874;10.186;2022-08-01T10:07:25;3.07;;;1.60;;
44438;SDS011;30145;48.874;10.186;2022-08-01T10:09:55;2.67;;;1.50;;
44438;SDS011;30145;48.874;10.186;2022-08-01T10:12:22;2.10;;;1.67;;
44438;SDS011;30145;48.874;10.186;2022-08-01T10:14:52;1.47;;;1.37;;
44438;SDS011;30145;48.874;10.186;2022-08-01T10:17:24;2.87;;;1.63;;
44438;SDS011;30145;48.874;10.186;2022-08-01T10:19:51;2.13;;;1.40;;
44438;SDS011;30145;48.874;10.186;2022-08-01T10:22:22;1.80;;;1.33;;
44438;SDS011;30145;48.874;10.186;2022-08-01T10:24:51;4.43;;;1.57;;
44438;SDS011;30145;48.874;10.186;2022-08-01T10:27:22;1.47;;;1.37;;
44438;SDS011;30145;48.874;10.186;2022-08-01T10:29:57;2.80;;;1.43;;
44438;SDS011;30145;48.874;10.186;2022-08-01T10:32:35;3.00;;;1.90;;
44438;SDS011;30145;48.874;10.186;2022-08-01T10:35:06;1.90;;;1.27;;
44438;SDS011;30145;48.874;10.186;2022-08-01T10:37:34;1.70;;;1.37;;
44438;SDS011;30145;48.874;10.186;2022-08-01T10:40:02;3.33;;;1.60;;
44438;SDS011;30145;48.874;10.186;2022-08-01T10:42:51;1.97;;;1.50;;
44438;SDS011;30145;48.874;10.186;2022-08-01T10:45:18;1.60;;;1.50;;
44438;SDS011;30145;48.874;10.186;2022-08-01T10:47:51;2.60;;;1.40;;
44438;SDS011;30145;48.874;10.186;2022-08-01T10:50:32;1.80;;;1.70;;
44438;SDS011;30145;48.874;10.186;2022-08-01T10:58:29;1.70;;;1.60;;
44438;SDS011;30145;48.874;10.186;2022-08-01T11:01:39;2.07;;;1.40;;
44438;SDS011;30145;48.874;10.186;2022-08-01T11:04:10;1.87;;;1.57;;
44438;SDS011;30145;48.874;10.186;2022-08-01T11:09:46;1.95;;;1.50;;
44438;SDS011;30145;48.874;10.186;2022-08-01T11:12:17;2.13;;;1.38;;
44438;SDS011;30145;48.874;10.186;2022-08-01T11:17:31;1.90;;;1.40;;
44438;SDS011;30145;48.874;10.186;2022-08-01T11:20:05;1.50;;;1.40;;
44438;SDS011;30145;48.874;10.186;2022-08-01T11:22:54;2.47;;;1.70;;
44438;SDS011;30145;48.874;10.186;2022-08-01T11:25:25;2.47;;;1.30;;
44438;SDS011;30145;48.874;10.186;2022-08-01T11:38:38;1.87;;;1.67;;
44438;SDS011;30145;48.874;10.186;2022-08-01T11:41:14;1.45;;;1.35;;
44438;SDS011;30145;48.874;10.186;2022-08-01T11:54:34;3.03;;;1.88;;
44438;SDS011;30145;48.874;10.186;2022-08-01T11:57:06;3.63;;;2.35;;
44438;SDS011;30145;48.874;10.186;2022-08-01T11:59:45;2.47;;;1.75;;
44438;SDS011;30145;48.874;10.186;2022-08-01T12:04:49;3.00;;;1.97;;
44438;SDS011;30145;48.874;10.186;2022-08-01T12:07:21;3.17;;;2.07;;
44438;SDS011;30145;48.874;10.186;2022-08-01T12:09:56;2.43;;;2.00;;
44438;SDS011;30145;48.874;10.186;2022-08-01T12:12:37;1.97;;;1.87;;
44438;SDS011;30145;48.874;10.186;2022-08-01T12:15:29;2.47;;;1.90;;
44438;SDS011;30145;48.874;10.186;2022-08-01T12:17:58;2.03;;;1.90;;
44438;SDS011;30145;48.874;10.186;2022-08-01T12:20:28;1.97;;;1.63;;
44438;SDS011;30145;48.874;10.186;2022-08-01T12:22:58;2.63;;;2.20;;
44438;SDS011;30145;48.874;10.186;2022-08-01T12:25:26;1.80;;;1.70;;
44438;SDS011;30145;48.874;10.186;2022-08-01T12:27:54;2.10;;;1.92;;
44438;SDS011;30145;48.874;10.186;2022-08-01T12:30:22;2.08;;;1.88;;
44438;SDS011;30145;48.874;10.186;2022-08-01T12:32:51;1.97;;;1.80;;
44438;SDS011;30145;48.874;10.186;2022-08-01T12:35:20;2.03;;;1.50;;
44438;SDS011;30145;48.874;10.186;2022-08-01T12:40:32;2.40;;;1.90;;
44438;SDS011;30145;48.874;10.186;2022-08-01T12:43:05;2.80;;;1.80;;
44438;SDS011;30145;48.874;10.186;2022-08-01T12:45:34;1.73;;;1.63;;
44438;SDS011;30145;48.874;10.186;2022-08-01T12:50:33;2.50;;;1.70;;
44438;SDS011;30145;48.874;10.186;2022-08-01T12:53:00;2.00;;;1.45;;
44438;SDS011;30145;48.874;10.186;2022-08-01T12:55:27;1.55;;;1.33;;
44438;SDS011;30145;48.874;10.186;2022-08-01T12:58:11;1.88;;;1.40;;
44438;SDS011;30145;48.874;10.186;2022-08-01T13:00:41;1.60;;;1.35;;
44438;SDS011;30145;48.874;10.186;2022-08-01T13:03:12;2.10;;;1.52;;
44438;SDS011;30145;48.874;10.186;2022-08-01T13:05:41;1.90;;;1.40;;
44438;SDS011;30145;48.874;10.186;2022-08-01T13:08:15;5.00;;;1.40;;
44438;SDS011;30145;48.874;10.186;2022-08-01T13:10:46;2.80;;;1.80;;
44438;SDS011;30145;48.874;10.186;2022-08-01T13:13:14;2.70;;;1.70;;
44438;SDS011;30145;48.874;10.186;2022-08-01T13:15:43;2.58;;;1.58;;
44438;SDS011;30145;48.874;10.186;2022-08-01T13:18:24;1.95;;;1.70;;
44438;SDS011;30145;48.874;10.186;2022-08-01T13:21:09;2.42;;;1.40;;
44438;SDS011;30145;48.874;10.186;2022-08-01T13:23:42;1.70;;;1.60;;
44438;SDS011;30145;48.874;10.186;2022-08-01T13:26:40;2.67;;;1.20;;
44438;SDS011;30145;48.874;10.186;2022-08-01T13:29:13;3.30;;;1.45;;
44438;SDS011;30145;48.874;10.186;2022-08-01T13:31:44;2.33;;;1.60;;
44438;SDS011;30145;48.874;10.186;2022-08-01T13:34:11;1.67;;;1.40;;
44438;SDS011;30145;48.874;10.186;2022-08-01T13:36:39;2.85;;;1.52;;
44438;SDS011;30145;48.874;10.186;2022-08-01T13:39:08;1.77;;;1.30;;
44438;SDS011;30145;48.874;10.186;2022-08-01T13:41:54;1.55;;;1.30;;
44438;SDS011;30145;48.874;10.186;2022-08-01T13:44:21;2.05;;;1.20;;
44438;SDS011;30145;48.874;10.186;2022-08-01T13:46:48;3.78;;;1.38;;
44438;SDS011;30145;48.874;10.186;2022-08-01T13:49:15;2.72;;;1.27;;
44438;SDS011;30145;48.874;10.186;2022-08-01T13:51:43;1.23;;;1.13;;
44438;SDS011;30145;48.874;10.186;2022-08-01T13:54:10;3.53;;;1.35;;
44438;SDS011;30145;48.874;10.186;2022-08-01T13:56:37;1.00;;;0.90;;
44438;SDS011;30145;48.874;10.186;2022-08-01T13:59:05;2.47;;;1.60;;
44438;SDS011;30145;48.874;10.186;2022-08-01T14:01:33;1.60;;;1.40;;
44438;SDS011;30145;48.874;10.186;2022-08-01T14:04:01;2.03;;;1.30;;
44438;SDS011;30145;48.874;10.186;2022-08-01T14:06:28;3.53;;;1.10;;
44438;SDS011;30145;48.874;10.186;2022-08-01T14:08:56;1.25;;;1.08;;
44438;SDS011;30145;48.874;10.186;2022-08-01T14:11:23;1.13;;;0.95;;
44438;SDS011;30145;48.874;10.186;2022-08-01T14:13:50;1.70;;;1.00;;
44438;SDS011;30145;48.874;10.186;2022-08-01T14:16:17;1.00;;;0.93;;
44438;SDS011;30145;48.874;10.186;2022-08-01T14:18:44;1.83;;;1.20;;
44438;SDS011;30145;48.874;10.186;2022-08-01T14:21:11;1.55;;;1.10;;
44438;SDS011;30145;48.874;10.186;2022-08-01T14:23:38;1.63;;;1.13;;
44438;SDS011;30145;48.874;10.186;2022-08-01T14:26:05;1.83;;;1.20;;
44438;SDS011;30145;48.874;10.186;2022-08-01T14:28:35;1.85;;;1.27;;
44438;SDS011;30145;48.874;10.186;2022-08-01T14:31:03;1.95;;;1.30;;
44438;SDS011;30145;48.874;10.186;2022-08-01T14:33:32;2.60;;;1.10;;
44438;SDS011;30145;48.874;10.186;2022-08-01T14:36:01;1.30;;;1.05;;
44438;SDS011;30145;48.874;10.186;2022-08-01T14:38:28;1.40;;;1.20;;
44438;SDS011;30145;48.874;10.186;2022-08-01T14:40:55;1.08;;;0.98;;
44438;SDS011;30145;48.874;10.186;2022-08-01T14:43:22;1.30;;;1.20;;
44438;SDS011;30145;48.874;10.186;2022-08-01T14:45:52;1.30;;;1.10;;
44438;SDS011;30145;48.874;10.186;2022-08-01T14:48:21;2.95;;;1.20;;
44438;SDS011;30145;48.874;10.186;2022-08-01T14:50:48;2.58;;;0.95;;
44438;SDS011;30145;48.874;10.186;2022-08-01T14:53:17;1.17;;;1.08;;
44438;SDS011;30145;48.874;10.186;2022-08-01T14:55:44;1.58;;;1.17;;
44438;SDS011;30145;48.874;10.186;2022-08-01T14:58:11;1.88;;;1.08;;
44438;SDS011;30145;48.874;10.186;2022-08-01T15:00:38;2.25;;;1.13;;
44438;SDS011;30145;48.874;10.186;2022-08-01T15:03:05;1.33;;;1.00;;
44438;SDS011;30145;48.874;10.186;2022-08-01T15:05:32;2.90;;;1.05;;
44438;SDS011;30145;48.874;10.186;2022-08-01T15:08:00;1.07;;;0.97;;
44438;SDS011;30145;48.874;10.186;2022-08-01T15:10:27;1.13;;;1.00;;
44438;SDS011;30145;48.874;10.186;2022-08-01T15:12:55;1.43;;;1.00;;
44438;SDS011;30145;48.874;10.186;2022-08-01T15:15:22;2.37;;;1.33;;
44438;SDS011;30145;48.874;10.186;2022-08-01T15:17:52;3.47;;;1.27;;
44438;SDS011;30145;48.874;10.186;2022-08-01T15:20:20;2.17;;;1.10;;
44438;SDS011;30145;48.874;10.186;2022-08-01T15:22:48;1.63;;;1.20;;
44438;SDS011;30145;48.874;10.186;2022-08-01T15:25:16;1.50;;;0.97;;
44438;SDS011;30145;48.874;10.186;2022-08-01T15:27:43;1.50;;;0.90;;
44438;SDS011;30145;48.874;10.186;2022-08-01T15:30:10;1.17;;;0.80;;
44438;SDS011;30145;48.874;10.186;2022-08-01T15:32:38;2.20;;;1.00;;
44438;SDS011;30145;48.874;10.186;2022-08-01T15:35:05;1.17;;;0.90;;
44438;SDS011;30145;48.874;10.186;2022-08-01T15:37:33;1.73;;;1.00;;
44438;SDS011;30145;48.874;10.186;2022-08-01T15:40:02;1.40;;;1.10;;